createdAt,value
2023-02-21T00:38:28.287Z,2.33
2023-02-21T00:49:38.108Z,2.03
2023-02-21T00:57:08.306Z,1.15
2023-02-21T01:00:08.066Z,1.23
2023-02-21T01:11:55.822Z,1.33
2023-02-21T01:15:31.687Z,1.73
2023-02-21T01:21:36.853Z,1.90
2023-02-21T01:25:10.818Z,1.83
2023-02-21T01:28:37.368Z,1.50
2023-02-21T01:31:32.807Z,1.52
2023-02-21T01:43:53.994Z,1.25
2023-02-21T02:41:44.017Z,0.52
2023-02-21T02:44:28.636Z,0.70
2023-02-21T02:47:08.242Z,0.60
2023-02-21T02:49:50.108Z,0.65
2023-02-21T02:52:28.885Z,0.60
2023-02-21T02:55:27.616Z,0.70
2023-02-21T02:57:56.506Z,0.50
2023-02-21T03:00:29.520Z,0.60
2023-02-21T03:03:06.587Z,0.70
2023-02-21T03:06:06.929Z,0.60
2023-02-21T03:08:54.385Z,0.52
2023-02-21T03:11:27.365Z,0.60
2023-02-21T03:14:04.250Z,0.60
2023-02-21T03:16:44.456Z,0.45
2023-02-21T03:19:17.751Z,0.70
2023-02-21T03:21:55.502Z,0.40
2023-02-21T03:24:27.031Z,0.73
2023-02-21T03:27:29.103Z,0.73
2023-02-21T03:30:23.045Z,0.60
2023-02-21T03:33:03.976Z,1.13
2023-02-21T03:35:32.977Z,0.50
2023-02-21T03:38:00.770Z,0.57
2023-02-21T03:40:35.354Z,0.50
2023-02-21T03:43:09.654Z,0.60
2023-02-21T03:45:53.603Z,0.80
2023-02-21T03:48:31.559Z,0.85
2023-02-21T03:51:10.096Z,0.75
2023-02-21T03:53:38.686Z,0.50
2023-02-21T03:56:10.413Z,0.70
2023-02-21T03:59:01.376Z,1.15
2023-02-21T04:01:36.457Z,0.90
2023-02-21T04:04:10.936Z,0.90
2023-02-21T04:06:40.801Z,0.77
2023-02-21T04:09:19.775Z,1.05
2023-02-21T04:11:52.915Z,0.60
2023-02-21T04:14:36.491Z,0.88
2023-02-21T04:17:12.857Z,0.70
2023-02-21T04:19:50.769Z,0.73
2023-02-21T04:22:21.081Z,0.70
2023-02-21T04:24:48.453Z,0.70
2023-02-21T04:27:20.839Z,0.77
2023-02-21T04:30:20.923Z,0.80
2023-02-21T04:33:11.105Z,0.52
2023-02-21T04:35:40.430Z,0.68
2023-02-21T04:38:26.097Z,0.77
2023-02-21T04:41:08.758Z,0.90
2023-02-21T04:43:45.027Z,0.65
2023-02-21T04:46:23.440Z,0.80
2023-02-21T04:49:00.664Z,0.70
2023-02-21T04:51:34.364Z,0.70
2023-02-21T04:54:07.172Z,0.85
2023-02-21T04:56:41.109Z,0.82
2023-02-21T04:59:11.624Z,0.90
2023-02-21T05:01:44.017Z,0.90
2023-02-21T05:04:33.803Z,1.08
2023-02-21T05:07:14.512Z,0.85
2023-02-21T05:09:41.981Z,1.10
2023-02-21T05:12:12.268Z,1.02
2023-02-21T05:14:42.281Z,0.90
2023-02-21T05:17:11.203Z,1.20
2023-02-21T05:19:40.093Z,0.65
2023-02-21T05:22:07.799Z,0.60
2023-02-21T05:24:36.771Z,0.52
2023-02-21T05:27:04.221Z,0.80
2023-02-21T05:32:03.712Z,0.90
2023-02-21T05:34:31.443Z,0.70
2023-02-21T05:36:59.573Z,1.17
2023-02-21T05:39:29.558Z,1.23
2023-02-21T05:41:59.916Z,0.77
2023-02-21T05:44:31.400Z,0.80
2023-02-21T05:47:00.843Z,1.05
2023-02-21T05:49:34.035Z,0.75
2023-02-21T05:52:08.720Z,0.90
2023-02-21T05:55:06.486Z,1.10
2023-02-21T05:57:41.066Z,0.60
2023-02-21T06:00:13.631Z,0.90
2023-02-21T06:02:41.055Z,1.00
2023-02-21T06:05:19.018Z,0.80
2023-02-21T06:07:51.548Z,0.75
2023-02-21T06:10:48.913Z,1.10
2023-02-21T06:13:16.895Z,0.75
2023-02-21T06:15:52.518Z,0.98
2023-02-21T06:18:38.125Z,1.40
2023-02-21T06:21:19.299Z,0.95
2023-02-21T06:23:52.552Z,0.68
2023-02-21T06:26:36.336Z,0.93
2023-02-21T06:29:07.842Z,1.00
2023-02-21T06:31:40.616Z,0.52
2023-02-21T06:34:12.031Z,0.50
2023-02-21T06:36:51.297Z,1.27
2023-02-21T06:39:21.011Z,1.42
2023-02-21T06:41:54.009Z,0.70
2023-02-21T06:44:29.198Z,0.85
2023-02-21T06:47:02.186Z,0.60
2023-02-21T06:49:31.732Z,0.70
2023-02-21T06:52:04.742Z,0.85
2023-02-21T06:54:34.790Z,1.10
2023-02-21T07:01:37.817Z,0.55
2023-02-21T07:04:04.926Z,1.23
2023-02-21T07:06:38.912Z,0.80
2023-02-21T07:09:14.644Z,1.00
2023-02-21T07:11:51.548Z,0.85
2023-02-21T07:14:20.854Z,1.10
2023-02-21T07:17:16.621Z,1.48
2023-02-21T07:36:04.982Z,1.23
2023-02-21T07:38:41.348Z,1.10
2023-02-21T07:45:55.039Z,0.85
2023-02-21T07:48:23.497Z,1.45
2023-02-21T07:50:55.837Z,1.00
2023-02-21T07:53:26.260Z,0.50
2023-02-21T07:56:06.667Z,0.90
2023-02-21T07:58:37.571Z,1.30
2023-02-21T08:01:16.668Z,0.80
2023-02-21T08:03:43.933Z,1.00
2023-02-21T08:06:16.540Z,1.05
2023-02-21T08:09:00.243Z,0.93
2023-02-21T08:11:34.250Z,1.00
2023-02-21T08:14:07.548Z,0.90
2023-02-21T08:16:51.151Z,0.93
2023-02-21T08:19:29.992Z,0.90
2023-02-21T08:22:07.560Z,0.82
2023-02-21T08:24:50.660Z,0.70
2023-02-21T08:27:27.490Z,0.65
2023-02-21T08:30:08.103Z,0.60
2023-02-21T08:32:41.825Z,0.80
2023-02-21T08:35:26.210Z,0.63
2023-02-21T08:38:03.137Z,0.90
2023-02-21T08:40:39.370Z,1.00
2023-02-21T08:43:12.329Z,1.20
2023-02-21T08:45:57.699Z,0.80
2023-02-21T08:48:27.882Z,0.93
2023-02-21T08:51:03.905Z,0.95
2023-02-21T08:53:34.001Z,0.73
2023-02-21T08:56:01.135Z,1.20
2023-02-21T08:58:38.183Z,0.85
2023-02-21T09:01:07.663Z,1.00
2023-02-21T09:03:36.880Z,0.60
2023-02-21T09:06:03.871Z,1.10
2023-02-21T09:08:33.973Z,0.82
2023-02-21T09:11:01.389Z,1.02
2023-02-21T09:13:29.617Z,0.93
2023-02-21T09:15:57.261Z,0.90
2023-02-21T09:18:24.196Z,0.90
2023-02-21T09:20:53.995Z,1.30
2023-02-21T09:23:21.827Z,0.90
2023-02-21T09:25:49.375Z,0.73
2023-02-21T09:28:17.039Z,0.90
2023-02-21T09:30:47.250Z,1.00
2023-02-21T09:33:14.252Z,1.10
2023-02-21T09:35:41.514Z,1.63
2023-02-21T09:38:12.972Z,0.77
2023-02-21T09:40:41.872Z,1.20
2023-02-21T09:43:32.433Z,1.00
2023-02-21T09:46:09.280Z,1.08
2023-02-21T09:48:36.222Z,0.73
2023-02-21T09:51:08.020Z,0.77
2023-02-21T09:53:44.010Z,0.60
2023-02-21T09:56:34.271Z,1.08
2023-02-21T09:59:01.088Z,0.85
2023-02-21T10:02:05.793Z,1.20
2023-02-21T10:05:11.111Z,1.08
2023-02-21T10:08:00.920Z,0.90
2023-02-21T10:10:50.500Z,1.00
2023-02-21T10:13:37.605Z,1.15
2023-02-21T10:16:11.667Z,0.82
2023-02-21T10:18:45.331Z,1.10
2023-02-21T10:21:37.533Z,0.82
2023-02-21T10:24:21.893Z,1.05
2023-02-21T10:27:22.421Z,0.80
2023-02-21T10:29:55.434Z,0.85
2023-02-21T10:32:25.561Z,0.73
2023-02-21T10:34:55.082Z,1.02
2023-02-21T10:37:34.564Z,0.88
2023-02-21T10:40:08.816Z,0.88
2023-02-21T10:43:21.734Z,1.10
2023-02-21T10:45:59.369Z,0.77
2023-02-21T10:48:41.352Z,1.17
2023-02-21T10:51:32.139Z,0.70
2023-02-21T10:54:24.770Z,0.70
2023-02-21T10:56:55.643Z,1.38
2023-02-21T10:59:28.950Z,0.60
2023-02-21T11:01:59.561Z,1.08
2023-02-21T11:04:30.087Z,0.80
2023-02-21T11:07:05.370Z,0.77
2023-02-21T11:09:39.696Z,0.98
2023-02-21T11:12:16.554Z,0.70
2023-02-21T11:15:17.002Z,1.48
2023-02-21T11:17:45.757Z,0.70
2023-02-21T11:20:27.204Z,0.88
2023-02-21T11:22:54.256Z,1.00
2023-02-21T11:25:23.617Z,0.90
2023-02-21T11:28:04.276Z,0.90
2023-02-21T11:30:36.875Z,0.85
2023-02-21T11:33:04.938Z,1.00
2023-02-21T11:35:35.399Z,0.63
2023-02-21T11:38:10.116Z,0.70
2023-02-21T11:40:48.857Z,0.82
2023-02-21T11:43:21.778Z,1.00
2023-02-21T11:46:09.446Z,1.00
2023-02-21T11:48:48.107Z,0.68
2023-02-21T11:51:42.176Z,0.90
2023-02-21T11:54:09.161Z,0.90
2023-02-21T11:56:43.014Z,0.80
2023-02-21T11:59:44.623Z,0.90
2023-02-21T12:02:23.488Z,0.82
2023-02-21T12:05:07.195Z,0.93
2023-02-21T12:08:05.410Z,0.70
2023-02-21T12:10:47.360Z,0.63
2023-02-21T12:13:53.566Z,0.90
2023-02-21T12:16:43.244Z,0.95
2023-02-21T12:19:13.082Z,0.73
2023-02-21T12:22:23.401Z,0.57
2023-02-21T12:24:58.813Z,0.88
2023-02-21T12:27:34.595Z,0.80
2023-02-21T12:30:27.332Z,0.70
2023-02-21T12:32:58.480Z,0.80
2023-02-21T12:35:27.583Z,0.70
2023-02-21T12:40:44.060Z,0.70
2023-02-21T12:43:38.497Z,0.93
2023-02-21T12:46:18.116Z,0.93
2023-02-21T12:48:58.585Z,1.27
2023-02-21T12:51:40.913Z,0.68
2023-02-21T12:54:16.232Z,0.95
2023-02-21T12:57:01.171Z,0.98
2023-02-21T12:59:48.823Z,0.70
2023-02-21T13:02:24.039Z,0.73
2023-02-21T13:05:05.648Z,0.70
2023-02-21T13:07:38.876Z,0.70
2023-02-21T13:10:13.251Z,0.70
2023-02-21T13:12:59.365Z,1.08
2023-02-21T13:15:30.772Z,0.90
2023-02-21T13:18:06.654Z,1.15
2023-02-21T13:20:40.847Z,0.50
2023-02-21T13:24:04.667Z,0.30
2023-02-21T13:26:50.998Z,0.47
2023-02-21T13:29:39.158Z,0.60
2023-02-21T13:32:11.472Z,0.50
2023-02-21T13:34:41.889Z,0.70
2023-02-21T13:37:20.840Z,0.80
2023-02-21T13:39:53.977Z,0.67
2023-02-21T13:42:28.045Z,0.68
2023-02-21T13:45:15.633Z,0.60
2023-02-21T13:47:57.845Z,0.88
2023-02-21T13:50:40.252Z,0.93
2023-02-21T13:53:09.092Z,1.13
2023-02-21T13:55:37.412Z,0.60
2023-02-21T13:58:05.404Z,0.50
2023-02-21T14:00:32.183Z,0.60
2023-02-21T14:03:09.946Z,0.50
2023-02-21T14:05:56.934Z,0.63
2023-02-21T14:08:38.112Z,0.80
2023-02-21T14:11:07.689Z,0.60
2023-02-21T14:13:54.726Z,0.50
2023-02-21T14:16:50.285Z,0.63
2023-02-21T14:19:35.913Z,0.70
2023-02-21T14:22:10.475Z,0.40
2023-02-21T14:24:41.564Z,0.60
2023-02-21T14:27:14.191Z,0.60
2023-02-21T14:29:43.896Z,0.45
2023-02-21T14:32:10.832Z,0.50
2023-02-21T14:34:54.339Z,0.40
2023-02-21T14:37:30.445Z,0.63
2023-02-21T14:40:10.628Z,0.70
2023-02-21T14:43:02.619Z,0.50
2023-02-21T14:45:44.329Z,0.73
2023-02-21T14:48:50.678Z,0.38
2023-02-21T14:51:36.518Z,0.50
2023-02-21T14:54:11.803Z,0.40
2023-02-21T14:57:00.182Z,0.45
2023-02-21T14:59:29.996Z,0.60
2023-02-21T15:02:23.776Z,0.43
2023-02-21T15:05:12.401Z,0.82
2023-02-21T15:07:48.654Z,0.30
2023-02-21T15:10:23.642Z,0.30
2023-02-21T15:13:01.282Z,0.50
2023-02-21T15:15:32.139Z,0.63
2023-02-21T15:18:05.216Z,0.60
2023-02-21T15:20:34.680Z,0.50
2023-02-21T15:23:13.238Z,1.15
2023-02-21T15:25:43.576Z,0.50
2023-02-21T15:28:28.504Z,0.47
2023-02-21T15:31:09.764Z,0.50
2023-02-21T15:33:42.024Z,0.40
2023-02-21T15:36:16.007Z,0.60
2023-02-21T15:38:48.164Z,0.75
2023-02-21T15:41:37.717Z,0.30
2023-02-21T15:44:10.989Z,0.55
2023-02-21T15:46:49.362Z,0.73
2023-02-21T15:49:23.288Z,1.13
2023-02-21T15:51:51.456Z,0.85
2023-02-21T15:54:18.318Z,0.60
2023-02-21T15:56:45.635Z,0.43
2023-02-21T15:59:20.504Z,0.77
2023-02-21T16:02:17.284Z,0.95
2023-02-21T16:04:46.505Z,0.60
2023-02-21T16:07:35.038Z,0.50
2023-02-21T16:10:11.207Z,0.73
2023-02-21T16:12:46.653Z,1.00
2023-02-21T16:15:13.389Z,1.13
2023-02-21T16:17:41.414Z,1.00
2023-02-21T16:20:17.530Z,0.50
2023-02-21T16:23:08.228Z,0.60
2023-02-21T16:26:15.659Z,0.98
2023-02-21T16:28:44.477Z,0.60
2023-02-21T16:31:26.038Z,0.63
2023-02-21T16:36:25.712Z,0.90
2023-02-21T16:38:55.203Z,0.70
2023-02-21T16:41:22.285Z,0.73
2023-02-21T16:43:49.185Z,0.50
2023-02-21T16:46:22.862Z,1.10
2023-02-21T16:48:51.941Z,0.70
2023-02-21T16:51:21.447Z,0.70
2023-02-21T16:53:50.989Z,0.68
2023-02-21T16:56:20.498Z,0.50
2023-02-21T16:58:51.632Z,1.00
2023-02-21T17:01:25.778Z,0.80
2023-02-21T17:03:53.958Z,0.70
2023-02-21T17:06:22.847Z,1.70
2023-02-21T17:08:52.868Z,0.80
2023-02-21T17:11:19.804Z,1.02
2023-02-21T17:13:46.712Z,0.80
2023-02-21T17:16:16.578Z,0.90
2023-02-21T17:18:49.725Z,0.82
2023-02-21T17:21:16.891Z,1.15
2023-02-21T17:23:46.179Z,0.80
2023-02-21T17:26:13.272Z,0.80
2023-02-21T17:28:40.251Z,1.20
2023-02-21T17:31:09.268Z,1.35
2023-02-21T17:33:38.706Z,1.35
2023-02-21T17:36:05.832Z,1.70
2023-02-21T17:38:35.884Z,0.93
2023-02-21T17:41:08.876Z,1.23
2023-02-21T17:43:38.727Z,1.35
2023-02-21T17:46:10.229Z,1.52
2023-02-21T17:48:41.526Z,0.80
2023-02-21T17:51:23.740Z,0.85
2023-02-21T17:53:53.331Z,1.02
2023-02-21T17:56:26.374Z,0.60
2023-02-21T17:58:59.048Z,0.68
2023-02-21T18:01:29.454Z,0.68
2023-02-21T18:04:01.197Z,0.60
2023-02-21T18:06:33.519Z,1.02
2023-02-21T18:09:00.535Z,0.80
2023-02-21T18:11:31.757Z,0.85
2023-02-21T18:13:58.700Z,1.00
2023-02-21T18:16:27.875Z,0.73
2023-02-21T18:18:57.030Z,0.82
2023-02-21T18:21:27.540Z,0.80
2023-02-21T18:23:56.872Z,1.25
2023-02-21T18:26:23.670Z,0.77
2023-02-21T18:28:50.677Z,0.75
2023-02-21T18:31:20.871Z,1.25
2023-02-21T18:33:49.350Z,0.70
2023-02-21T18:36:18.300Z,1.10
2023-02-21T18:38:45.074Z,1.17
2023-02-21T18:41:13.835Z,0.80
2023-02-21T18:43:46.162Z,0.98
2023-02-21T18:46:16.274Z,1.02
2023-02-21T18:48:47.440Z,1.20
2023-02-21T18:51:19.914Z,1.17
2023-02-21T18:53:48.432Z,1.13
2023-02-21T18:56:19.391Z,1.00
2023-02-21T18:58:49.570Z,1.05
2023-02-21T19:01:19.297Z,0.80
2023-02-21T19:03:46.399Z,0.93
2023-02-21T19:06:17.172Z,0.80
2023-02-21T19:08:46.768Z,1.15
2023-02-21T19:11:16.149Z,0.90
2023-02-21T19:13:49.925Z,0.90
2023-02-21T19:16:24.662Z,0.93
2023-02-21T19:18:56.345Z,1.08
2023-02-21T19:21:26.597Z,1.02
2023-02-21T19:23:53.333Z,1.10
2023-02-21T19:26:27.879Z,1.08
2023-02-21T19:28:55.557Z,1.08
2023-02-21T19:31:22.636Z,0.90
2023-02-21T19:33:51.874Z,1.20
2023-02-21T19:36:22.930Z,1.45
2023-02-21T19:38:49.920Z,1.17
2023-02-21T19:41:18.091Z,1.20
2023-02-21T19:43:45.060Z,1.27
2023-02-21T19:46:25.922Z,1.60
2023-02-21T19:48:57.063Z,1.35
2023-02-21T19:51:28.248Z,1.40
2023-02-21T19:53:59.405Z,1.88
2023-02-21T19:56:30.036Z,1.60
2023-02-21T19:59:00.039Z,1.88
2023-02-21T20:01:27.155Z,2.40
2023-02-21T20:03:56.510Z,1.67
2023-02-21T20:08:56.224Z,1.90
2023-02-21T20:11:25.632Z,1.83
2023-02-21T20:13:54.805Z,2.15
2023-02-21T20:16:22.540Z,3.38
2023-02-21T20:18:51.822Z,1.67
2023-02-21T20:23:48.696Z,1.73
2023-02-21T20:26:16.404Z,1.85
2023-02-21T20:28:43.247Z,1.92
2023-02-21T20:31:16.907Z,1.77
2023-02-21T20:33:46.962Z,1.85
2023-02-21T20:36:14.576Z,2.22
2023-02-21T20:38:41.728Z,1.75
2023-02-21T20:41:15.866Z,2.25
2023-02-21T20:43:42.807Z,1.70
2023-02-21T20:46:20.496Z,2.05
2023-02-21T20:48:47.502Z,1.98
2023-02-21T20:51:14.536Z,2.00
2023-02-21T20:53:48.034Z,2.42
2023-02-21T20:56:14.862Z,1.67
2023-02-21T20:58:43.973Z,2.05
2023-02-21T21:01:14.897Z,3.03
2023-02-21T21:03:42.117Z,4.03
2023-02-21T21:06:12.079Z,1.63
2023-02-21T21:08:38.924Z,2.50
2023-02-21T21:11:05.982Z,2.33
2023-02-21T21:13:33.139Z,2.72
2023-02-21T21:16:00.010Z,2.15
2023-02-21T21:18:27.164Z,2.28
2023-02-21T21:20:56.680Z,1.80
2023-02-21T21:23:25.968Z,1.58
2023-02-21T21:25:52.950Z,1.58
2023-02-21T21:28:22.496Z,1.90
2023-02-21T21:30:49.495Z,1.75
2023-02-21T21:33:19.561Z,1.80
2023-02-21T21:35:46.481Z,1.63
2023-02-21T21:38:15.990Z,1.80
2023-02-21T21:40:47.970Z,2.13
2023-02-21T21:43:18.243Z,1.38
2023-02-21T21:45:47.459Z,2.15
2023-02-21T21:48:19.701Z,2.00
2023-02-21T21:50:50.358Z,1.70
2023-02-21T21:53:17.257Z,1.60
2023-02-21T21:55:44.177Z,2.38
2023-02-21T21:58:14.127Z,1.65
2023-02-21T22:00:46.138Z,2.10
2023-02-21T22:03:15.374Z,1.50
2023-02-21T22:05:50.705Z,1.75
2023-02-21T22:08:22.770Z,1.98
2023-02-21T22:10:49.606Z,1.77
2023-02-21T22:13:21.092Z,1.88
2023-02-21T22:15:48.502Z,1.90
2023-02-21T22:18:22.534Z,1.73
2023-02-21T22:20:52.140Z,2.38
2023-02-21T22:25:51.306Z,2.72
2023-02-21T22:28:18.827Z,2.25
2023-02-21T22:30:46.205Z,1.45
2023-02-21T22:33:17.798Z,1.42
2023-02-21T22:35:44.850Z,1.90
2023-02-21T22:38:15.740Z,2.10
2023-02-21T22:40:46.394Z,2.17
2023-02-21T22:43:14.007Z,1.67
2023-02-21T22:45:49.998Z,1.98
2023-02-21T22:48:19.550Z,1.92
2023-02-21T22:50:47.628Z,2.08
2023-02-21T22:53:19.064Z,1.77
2023-02-21T22:55:51.988Z,1.77
2023-02-21T22:58:22.674Z,2.00
2023-02-21T23:00:55.003Z,1.85
2023-02-21T23:03:21.786Z,2.15
2023-02-21T23:05:52.283Z,2.28
2023-02-21T23:08:22.735Z,1.83
2023-02-21T23:10:50.255Z,1.88
2023-02-21T23:13:20.006Z,2.13
2023-02-21T23:15:47.396Z,1.85
2023-02-21T23:18:23.156Z,1.75
2023-02-21T23:20:54.885Z,2.00
2023-02-21T23:26:01.207Z,1.45
2023-02-21T23:28:29.417Z,2.05
2023-02-21T23:30:58.135Z,2.17
2023-02-21T23:33:31.120Z,1.67
2023-02-21T23:35:58.595Z,1.75
2023-02-21T23:38:28.539Z,2.03
2023-02-21T23:40:57.649Z,1.77
2023-02-21T23:43:35.878Z,2.58
2023-02-21T23:46:06.895Z,1.85
2023-02-21T23:48:37.636Z,1.85
2023-02-21T23:51:08.159Z,1.95
2023-02-21T23:53:35.326Z,1.67
2023-02-21T23:56:06.495Z,2.17
2023-02-21T23:58:36.086Z,1.80
